Miho Yonago Airport
RJOH : now visible

Airfield :











YOU CAN JOIN US ON...

 
LOGIN :

Register | Disclaimer

   EN    FR    IT 

 









Legend :    VFR   Marginal VFR   IFR   Intensive IFR   Very Intensive IFR
Visi :
Ceiling :
>= 8 km
>= 3000ft
5 to 8 km
1000 to 3000 ft
1500m to 5 km
500 to 1000 ft
800 to 1500m
200 to 500 ft
< 800m
< 200 ft
Symbols :   Thunderstorms  Fog  Heavy snow  Heavy precipitations  Wind > 20 kt







- Airport Elevation : 20 ft
- IATA code : YGJ


RJOH - Miho Yonago

CURRENT METAR :
  • 190500Z 06005KT 9999 -SHRA FEW030 SCT035 FEW035TCU BKN080 26/25 Q1009

EXPIRED METARs :
  • 190400Z 07008KT 9999 FEW030TCU BKN080 BKN110 27/25 Q1009

TAF AMD TAF RJOH
Valid from the 19 at 04:00 until the 20 at 06:00 UTC


190421Z 1904/2006 07010KT 6000 -SHRA FEW008 SCT015 BKN025
TEMPO 1904/1909 3000 TSRA BR FEW003 SCT005 BKN008 FEW015CB
TEMPO 1915/1918 4000 SHRA BR FEW003 SCT005 BKN008
TEMPO 1918/2000 2000 TSRA BR FEW001 SCT003 BKN005 FEW015CB
No reported NOTAMs for that airfield.



MET'MAP, your aeronautical weather chart ! - Copyright ORBIFLY December 2007 - Disclaimer

ORBIFLY MET'MAP TEAM :

Programming & Development : Alexandra Zaïnal
Concept & Development : Baudouin d'Aumeries
Co-Development & Prog : Marc-Olivier Méhu
Technical & hardware support : Manuel Goepfert

Contact : metmap@orbifly.com




SOURCES & CREDITS :

   NOAA       Earth
Advisory